METAR Data
IDs: Format: Raw Decoded Include TAF

Data at: 2009 UTC 14 Dec 2018

METAR for:EBBE (Beauvechain(AB), --, BX)
Text:EBBE 141955Z AUTO 08003KT 9999 BKN036/// M00/M04 Q1024 BLU
Temperature: 0.0°C ( 32°F)
Dewpoint: -4.0°C ( 25°F) [RH = 74%]
Pressure (altimeter):30.24 inches Hg (1024.0 mb)
Winds:from the E (80 degrees) at 3 MPH (3 knots; 1.5 m/s)
Visibility:6 or more sm (10+ km)
Ceiling:3600 feet AGL
Clouds: broken clouds at 3600 feet AGL

TAF for:EBBE (Beauvechain(AB), --, BX) issued at 1141 UTC 14 Dec 2018
Text:TAF EBBE 141141Z 1413/1422 08005KT 8000 FEW021 BKN030
Forecast period:1300 to 1600 UTC 14 December 2018
Forecast type:FROM: standard forecast or significant change
Winds:from the E (80 degrees) at 6 MPH (5 knots; 2.6 m/s)
Visibility: 5 sm ( 8 km)
Ceiling:3000 feet AGL
Clouds: few clouds at 2100 feet AGL, broken clouds at 3000 feet AGL
Text:BECMG 1416/1418 9999 BKN022
Forecast period:1600 to 2200 UTC 14 December 2018
Forecast type:BECOMING: Conditions expected to become as follows by 1800 UTC 14 December 2018
Winds:from the E (80 degrees) at 6 MPH (5 knots; 2.6 m/s)
Visibility:6 or more sm (10+ km)
Ceiling:2200 feet AGL
Clouds: broken clouds at 2200 feet AGL